createdAt,value
2019-02-25T00:02:26.408Z,33.13
2019-02-25T00:04:54.919Z,35.28
2019-02-25T00:07:23.298Z,33.60
2019-02-25T00:09:51.748Z,38.95
2019-02-25T00:12:20.185Z,33.70
2019-02-25T00:14:48.587Z,31.85
2019-02-25T00:17:17.010Z,33.80
2019-02-25T00:19:45.388Z,30.15
2019-02-25T00:22:13.811Z,28.20
2019-02-25T00:24:42.201Z,33.20
2019-02-25T00:27:10.619Z,34.03
2019-02-25T00:29:39.009Z,32.40
2019-02-25T00:32:07.412Z,32.93
2019-02-25T00:34:35.865Z,36.90
2019-02-25T00:37:04.297Z,33.05
2019-02-25T00:39:32.661Z,33.10
2019-02-25T00:42:01.145Z,32.60
2019-02-25T00:44:29.543Z,31.02
2019-02-25T00:46:57.941Z,33.50
2019-02-25T00:49:26.326Z,29.02
2019-02-25T00:51:54.782Z,35.05
2019-02-25T00:54:23.115Z,34.78
2019-02-25T00:56:51.542Z,36.42
2019-02-25T00:59:19.936Z,37.08
2019-02-25T01:01:48.360Z,29.95
2019-02-25T01:04:16.740Z,35.60
2019-02-25T01:06:45.154Z,31.02
2019-02-25T01:09:13.839Z,32.53
2019-02-25T01:11:42.301Z,32.63
2019-02-25T01:14:10.700Z,31.33
2019-02-25T01:16:39.110Z,31.27
2019-02-25T01:19:07.502Z,37.17
2019-02-25T01:21:35.898Z,32.67
2019-02-25T01:24:04.279Z,29.27
2019-02-25T01:26:32.687Z,33.67
2019-02-25T01:29:01.072Z,30.35
2019-02-25T01:31:29.852Z,31.57
2019-02-25T01:33:58.236Z,30.95
2019-02-25T01:36:26.933Z,31.62
2019-02-25T01:38:55.317Z,28.30
2019-02-25T01:41:23.713Z,29.75
2019-02-25T01:43:52.129Z,31.27
2019-02-25T01:46:20.567Z,29.80
2019-02-25T01:48:49.021Z,29.67
2019-02-25T01:51:17.399Z,29.63
2019-02-25T01:53:45.838Z,29.85
2019-02-25T01:56:14.589Z,28.50
2019-02-25T01:58:43.031Z,28.20
2019-02-25T02:01:11.423Z,33.90
2019-02-25T02:03:39.814Z,29.72
2019-02-25T02:06:08.318Z,32.28
2019-02-25T02:08:36.739Z,30.77
2019-02-25T02:11:05.161Z,26.45
2019-02-25T02:13:33.829Z,33.30
2019-02-25T02:16:02.222Z,29.20
2019-02-25T02:18:30.653Z,30.35
2019-02-25T02:20:59.439Z,29.77
2019-02-25T02:23:27.937Z,30.37
2019-02-25T02:25:56.310Z,31.48
2019-02-25T02:28:24.723Z,28.50
2019-02-25T02:30:53.526Z,32.28
2019-02-25T02:33:22.070Z,26.73
2019-02-25T02:35:50.455Z,30.08
2019-02-25T02:38:19.156Z,30.27
2019-02-25T02:40:47.541Z,30.75
2019-02-25T02:43:15.972Z,30.30
2019-02-25T02:45:47.656Z,32.83
2019-02-25T02:48:27.819Z,29.72
2019-02-25T02:50:56.254Z,25.88
2019-02-25T02:53:24.682Z,29.02
2019-02-25T02:55:53.076Z,28.70
2019-02-25T02:58:21.514Z,37.63
2019-02-25T03:00:49.909Z,28.73
2019-02-25T03:03:18.311Z,35.60
2019-02-25T03:05:46.690Z,30.50
2019-02-25T03:08:15.104Z,32.73
2019-02-25T03:10:43.515Z,30.00
2019-02-25T03:13:11.932Z,26.80
2019-02-25T03:15:40.302Z,29.55
2019-02-25T03:18:08.789Z,34.03
2019-02-25T03:20:37.200Z,33.53
2019-02-25T03:23:05.741Z,34.23
2019-02-25T03:25:34.499Z,30.00
2019-02-25T03:28:02.887Z,36.13
2019-02-25T03:30:31.330Z,32.78
2019-02-25T03:32:59.696Z,28.23
2019-02-25T03:35:28.196Z,28.12
2019-02-25T03:37:56.597Z,30.12
2019-02-25T03:40:25.293Z,32.65
2019-02-25T03:42:53.960Z,31.85
2019-02-25T03:45:22.448Z,33.42
2019-02-25T03:47:50.850Z,29.87
2019-02-25T03:50:19.264Z,30.57
2019-02-25T03:52:47.648Z,29.80
2019-02-25T03:55:22.184Z,28.27
2019-02-25T03:57:50.580Z,26.10
2019-02-25T04:00:23.089Z,30.65
2019-02-25T04:02:51.490Z,30.25
2019-02-25T04:05:19.906Z,27.85
2019-02-25T04:07:48.293Z,27.48
2019-02-25T04:10:16.694Z,28.27
2019-02-25T04:12:45.136Z,25.95
2019-02-25T04:15:17.643Z,28.85
2019-02-25T04:17:46.003Z,33.13
2019-02-25T04:20:15.861Z,30.43
2019-02-25T04:22:44.616Z,27.60
2019-02-25T04:25:13.064Z,32.85
2019-02-25T04:27:41.469Z,26.23
2019-02-25T04:30:17.081Z,28.65
2019-02-25T04:32:45.527Z,32.08
2019-02-25T04:35:14.205Z,31.00
2019-02-25T04:37:42.581Z,33.05
2019-02-25T04:40:14.220Z,37.40
2019-02-25T04:42:42.629Z,34.35
2019-02-25T04:45:18.244Z,39.05
2019-02-25T04:47:46.724Z,35.85
2019-02-25T04:50:15.176Z,36.05
2019-02-25T04:52:43.625Z,36.15
2019-02-25T04:55:13.099Z,35.88
2019-02-25T04:57:41.508Z,32.78
2019-02-25T05:00:24.482Z,33.85
2019-02-25T05:02:52.898Z,31.85
2019-02-25T05:05:21.317Z,30.37
2019-02-25T05:07:49.719Z,28.73
2019-02-25T05:10:18.314Z,30.43
2019-02-25T05:13:06.190Z,31.93
2019-02-25T05:15:36.066Z,31.42
2019-02-25T05:18:04.591Z,32.90
2019-02-25T05:20:33.012Z,32.03
2019-02-25T05:23:01.426Z,29.55
2019-02-25T05:25:30.101Z,31.07
2019-02-25T05:27:58.500Z,31.45
2019-02-25T05:30:26.912Z,30.57
2019-02-25T05:32:55.310Z,34.70
2019-02-25T05:35:23.717Z,42.23
2019-02-25T05:37:52.121Z,36.25
2019-02-25T05:40:21.085Z,38.40
2019-02-25T05:42:49.582Z,35.30
2019-02-25T05:45:17.950Z,36.23
2019-02-25T05:47:46.393Z,31.97
2019-02-25T05:50:21.685Z,38.83
2019-02-25T05:52:50.046Z,35.88
2019-02-25T05:55:18.434Z,37.90
2019-02-25T05:57:47.114Z,33.92
2019-02-25T06:00:21.441Z,35.58
2019-02-25T06:02:49.865Z,35.68
2019-02-25T06:05:18.277Z,32.93
2019-02-25T06:07:46.690Z,33.83
2019-02-25T06:10:15.246Z,32.75
2019-02-25T06:12:43.652Z,41.23
2019-02-25T06:15:14.465Z,43.92
2019-02-25T06:17:43.194Z,32.98
2019-02-25T06:20:13.921Z,38.83
2019-02-25T06:22:42.312Z,39.38
2019-02-25T06:25:14.382Z,38.33
2019-02-25T06:27:42.761Z,39.98
2019-02-25T06:30:17.068Z,35.92
2019-02-25T06:32:45.460Z,35.85
2019-02-25T06:35:14.052Z,33.73
2019-02-25T06:37:42.495Z,39.35
2019-02-25T06:40:16.436Z,37.73
2019-02-25T06:42:44.821Z,41.55
2019-02-25T06:45:18.748Z,40.25
2019-02-25T06:47:47.216Z,35.30
2019-02-25T06:50:15.646Z,35.10
2019-02-25T06:52:44.331Z,36.25
2019-02-25T06:55:16.984Z,32.00
2019-02-25T06:57:45.398Z,31.48
2019-02-25T07:00:18.616Z,31.87
2019-02-25T07:02:47.055Z,34.95
2019-02-25T07:05:33.287Z,29.77
2019-02-25T07:08:14.926Z,34.55
2019-02-25T07:10:47.580Z,32.33
2019-02-25T07:13:17.611Z,34.00
2019-02-25T07:15:53.645Z,33.33
2019-02-25T07:18:38.391Z,30.12
2019-02-25T07:21:24.821Z,28.12
2019-02-25T07:24:11.343Z,32.53
2019-02-25T07:26:43.959Z,31.73
2019-02-25T07:29:14.048Z,31.62
2019-02-25T07:31:50.022Z,29.02
2019-02-25T07:34:35.213Z,28.52
2019-02-25T07:37:14.296Z,30.08
2019-02-25T07:39:44.335Z,28.75
2019-02-25T07:42:32.619Z,30.30
2019-02-25T07:45:08.544Z,32.17
2019-02-25T07:47:41.365Z,33.23
2019-02-25T07:50:29.098Z,29.05
2019-02-25T07:53:14.340Z,30.27
2019-02-25T07:55:50.000Z,27.87
2019-02-25T07:58:20.034Z,32.10
2019-02-25T08:00:50.086Z,30.55
2019-02-25T08:03:20.124Z,34.43
2019-02-25T08:05:50.144Z,32.23
2019-02-25T08:08:36.240Z,31.20
2019-02-25T08:11:22.515Z,26.65
2019-02-25T08:14:08.571Z,28.55
2019-02-25T08:16:50.355Z,32.65
2019-02-25T08:19:23.132Z,31.40
2019-02-25T08:22:09.481Z,32.03
2019-02-25T08:24:42.505Z,33.85
2019-02-25T08:27:15.238Z,35.00
2019-02-25T08:30:01.600Z,35.08
2019-02-25T08:32:49.666Z,36.30
2019-02-25T08:36:01.529Z,32.63
2019-02-25T08:38:48.007Z,37.60
2019-02-25T08:41:20.572Z,34.35
2019-02-25T08:44:08.527Z,34.30
2019-02-25T08:46:41.011Z,31.48
2019-02-25T08:49:16.835Z,36.10
2019-02-25T08:51:45.246Z,32.23
2019-02-25T08:54:13.744Z,35.35
2019-02-25T08:56:42.143Z,29.05
2019-02-25T08:59:10.523Z,30.20
2019-02-25T09:01:38.938Z,28.42
2019-02-25T09:04:07.338Z,29.10
2019-02-25T09:06:35.755Z,28.87
2019-02-25T09:09:04.910Z,31.33
2019-02-25T09:11:33.263Z,28.53
2019-02-25T09:14:01.653Z,38.00
2019-02-25T09:16:30.068Z,32.63
2019-02-25T09:18:58.462Z,32.87
2019-02-25T09:21:31.762Z,31.30
2019-02-25T09:23:57.253Z,29.50
2019-02-25T09:26:25.708Z,28.60
2019-02-25T09:28:54.118Z,26.87
2019-02-25T09:31:22.523Z,30.33
2019-02-25T09:33:50.977Z,24.23
2019-02-25T09:36:19.371Z,31.13
2019-02-25T09:38:47.750Z,27.63
2019-02-25T09:41:16.181Z,27.13
2019-02-25T09:43:44.567Z,29.17
2019-02-25T09:46:13.259Z,28.80
2019-02-25T09:48:41.949Z,27.63
2019-02-25T09:51:11.361Z,26.67
2019-02-25T09:53:39.877Z,27.70
2019-02-25T09:56:08.566Z,26.70
2019-02-25T09:58:36.979Z,27.03
2019-02-25T10:01:05.387Z,27.53
2019-02-25T10:03:33.762Z,29.97
2019-02-25T10:06:02.487Z,28.07
2019-02-25T10:08:30.895Z,29.53
2019-02-25T10:10:59.298Z,32.17
2019-02-25T10:13:27.696Z,29.50
2019-02-25T10:15:56.083Z,25.67
2019-02-25T10:18:24.799Z,27.70
2019-02-25T10:20:53.193Z,31.30
2019-02-25T10:23:21.623Z,29.73
2019-02-25T10:25:50.001Z,31.97
2019-02-25T10:28:18.410Z,31.87
2019-02-25T10:30:52.745Z,30.23
2019-02-25T10:33:17.193Z,31.37
2019-02-25T10:35:45.603Z,30.60
2019-02-25T10:38:14.029Z,30.77
2019-02-25T10:40:43.350Z,33.03
2019-02-25T10:43:12.448Z,30.53
2019-02-25T10:45:41.568Z,26.90
2019-02-25T10:48:10.956Z,26.17
2019-02-25T10:50:40.924Z,24.27
2019-02-25T10:53:10.833Z,22.43
2019-02-25T10:55:57.603Z,23.93
2019-02-25T10:58:26.969Z,23.87
2019-02-25T11:00:56.378Z,25.73
2019-02-25T11:03:24.778Z,24.27
2019-02-25T11:05:53.987Z,25.60
2019-02-25T11:08:23.318Z,24.80
2019-02-25T11:10:56.269Z,24.87
2019-02-25T11:13:25.489Z,28.07
2019-02-25T11:15:54.791Z,26.00
2019-02-25T11:18:24.546Z,25.90
2019-02-25T11:20:53.219Z,23.07
2019-02-25T11:23:21.916Z,27.00
2019-02-25T11:25:51.499Z,23.27
2019-02-25T11:28:25.605Z,22.23
2019-02-25T11:30:51.964Z,22.93
2019-02-25T11:33:22.722Z,23.20
2019-02-25T11:35:51.351Z,27.53
2019-02-25T11:38:19.773Z,24.70
2019-02-25T11:40:48.161Z,20.83
2019-02-25T11:43:18.622Z,21.10
2019-02-25T11:45:46.626Z,22.63
2019-02-25T11:48:15.027Z,18.77
2019-02-25T11:50:44.830Z,17.03
2019-02-25T11:53:13.501Z,15.70
2019-02-25T11:55:41.864Z,20.50
2019-02-25T11:58:10.556Z,16.03
2019-02-25T12:00:39.900Z,13.27
2019-02-25T12:03:08.352Z,14.63
2019-02-25T12:05:36.736Z,11.13
2019-02-25T12:08:05.180Z,13.50
2019-02-25T12:10:33.611Z,15.73
2019-02-25T12:13:02.004Z,13.90
2019-02-25T12:15:30.384Z,13.80
2019-02-25T12:17:58.781Z,13.93
2019-02-25T12:20:27.179Z,13.93
2019-02-25T12:22:55.591Z,14.90
2019-02-25T12:25:24.909Z,14.20
2019-02-25T12:27:53.325Z,16.30
2019-02-25T12:30:23.053Z,16.13
2019-02-25T12:32:51.471Z,16.13
2019-02-25T12:35:19.872Z,14.97
2019-02-25T12:37:48.288Z,16.47
2019-02-25T12:40:16.877Z,17.30
2019-02-25T12:42:45.289Z,16.80
2019-02-25T12:45:14.638Z,16.50
2019-02-25T12:47:43.024Z,15.13
2019-02-25T12:50:16.095Z,13.73
2019-02-25T12:52:44.495Z,16.33
2019-02-25T12:55:18.951Z,13.37
2019-02-25T12:57:47.339Z,12.57
2019-02-25T13:00:19.459Z,15.93
2019-02-25T13:02:47.916Z,14.87
2019-02-25T13:05:18.923Z,12.23
2019-02-25T13:07:47.576Z,15.90
2019-02-25T13:10:16.728Z,10.37
2019-02-25T13:12:45.389Z,12.27
2019-02-25T13:15:17.508Z,12.70
2019-02-25T13:17:45.895Z,14.47
2019-02-25T13:20:15.038Z,14.90
2019-02-25T13:22:43.746Z,12.40
2019-02-25T13:25:15.010Z,14.33
2019-02-25T13:27:43.457Z,12.03
2019-02-25T13:30:19.418Z,11.73
2019-02-25T13:32:47.805Z,12.43
2019-02-25T13:35:16.288Z,11.47
2019-02-25T13:37:44.685Z,11.87
2019-02-25T13:40:14.339Z,12.03
2019-02-25T13:42:42.797Z,9.70
2019-02-25T13:45:16.444Z,10.37
2019-02-25T13:47:44.863Z,9.80
2019-02-25T13:50:16.778Z,11.27
2019-02-25T13:52:48.278Z,11.63
2019-02-25T13:55:16.890Z,12.27
2019-02-25T13:57:45.278Z,10.80
2019-02-25T14:00:16.858Z,10.40
2019-02-25T14:02:45.429Z,8.70
2019-02-25T14:05:13.968Z,11.60
2019-02-25T14:07:42.380Z,10.20
2019-02-25T14:10:14.891Z,12.57
2019-02-25T14:12:43.272Z,14.93
2019-02-25T14:15:20.846Z,12.87
2019-02-25T14:17:49.254Z,16.80
2019-02-25T14:20:21.716Z,12.90
2019-02-25T14:22:50.432Z,14.67
2019-02-25T14:25:32.251Z,12.73
2019-02-25T14:28:02.728Z,9.47
2019-02-25T14:30:33.404Z,10.80
2019-02-25T14:33:00.677Z,8.73
2019-02-25T14:35:33.569Z,11.53
2019-02-25T14:38:10.400Z,12.33
2019-02-25T14:40:39.674Z,13.03
2019-02-25T14:43:10.488Z,10.70
2019-02-25T14:45:41.436Z,11.43
2019-02-25T14:48:10.437Z,12.50
2019-02-25T14:50:38.522Z,12.90
2019-02-25T14:53:10.732Z,13.20
2019-02-25T14:55:37.051Z,13.93
2019-02-25T14:58:07.372Z,17.20
2019-02-25T15:00:38.033Z,15.93
2019-02-25T15:03:05.623Z,17.27
2019-02-25T15:05:34.059Z,18.47
2019-02-25T15:08:02.551Z,17.63
2019-02-25T15:10:31.671Z,17.70
2019-02-25T15:13:02.154Z,18.63
2019-02-25T15:15:31.072Z,17.97
2019-02-25T15:18:00.267Z,20.53
2019-02-25T15:20:28.974Z,19.20
2019-02-25T15:22:57.434Z,20.27
2019-02-25T15:25:29.142Z,20.80
2019-02-25T15:27:56.208Z,20.10
2019-02-25T15:30:30.777Z,19.97
2019-02-25T15:33:00.476Z,20.40
2019-02-25T15:35:31.664Z,20.47
2019-02-25T15:38:00.483Z,17.40
2019-02-25T15:40:29.076Z,17.17
2019-02-25T15:43:03.441Z,16.93
2019-02-25T15:45:35.417Z,16.20
2019-02-25T15:48:04.621Z,16.13
2019-02-25T15:50:33.310Z,19.87
2019-02-25T15:53:03.322Z,15.97
2019-02-25T15:55:32.059Z,19.93
2019-02-25T15:58:00.451Z,19.03
2019-02-25T16:00:31.700Z,17.90
2019-02-25T16:02:59.864Z,18.80
2019-02-25T16:05:29.695Z,22.00
2019-02-25T16:08:00.610Z,24.03
2019-02-25T16:10:29.025Z,15.30
2019-02-25T16:12:57.880Z,15.43
2019-02-25T16:15:27.695Z,19.00
2019-02-25T16:17:56.640Z,14.93
2019-02-25T16:20:25.825Z,22.37
2019-02-25T16:22:56.292Z,19.37
2019-02-25T16:25:27.534Z,18.57
2019-02-25T16:27:57.174Z,17.73
2019-02-25T16:30:26.734Z,18.37
2019-02-25T16:32:55.665Z,17.70
2019-02-25T16:35:24.362Z,18.33
2019-02-25T16:37:55.065Z,19.53
2019-02-25T16:40:26.367Z,18.83
2019-02-25T16:42:55.008Z,17.47
2019-02-25T16:45:28.518Z,23.70
2019-02-25T16:47:55.618Z,24.57
2019-02-25T16:50:24.074Z,24.37
2019-02-25T16:52:53.287Z,28.77
2019-02-25T16:55:25.070Z,24.57
2019-02-25T16:57:53.199Z,24.73
2019-02-25T17:00:29.885Z,25.33
2019-02-25T17:03:01.360Z,23.63
2019-02-25T17:05:27.733Z,24.73
2019-02-25T17:07:56.425Z,25.63
2019-02-25T17:10:28.914Z,26.13
2019-02-25T17:12:56.620Z,28.10
2019-02-25T17:15:26.987Z,26.37
2019-02-25T17:17:58.304Z,26.17
2019-02-25T17:20:27.795Z,25.90
2019-02-25T17:22:55.598Z,24.87
2019-02-25T17:25:26.830Z,25.07
2019-02-25T17:27:54.465Z,27.53
2019-02-25T17:30:24.175Z,25.43
2019-02-25T17:32:52.641Z,36.03
2019-02-25T17:35:23.576Z,27.80
2019-02-25T17:37:53.325Z,29.77
2019-02-25T17:40:22.224Z,28.47
2019-02-25T17:42:51.648Z,25.93
2019-02-25T17:45:29.953Z,31.50
2019-02-25T17:48:03.199Z,32.13
2019-02-25T17:50:30.307Z,30.13
2019-02-25T17:53:00.910Z,29.13
2019-02-25T17:55:31.697Z,32.57
2019-02-25T17:58:00.973Z,37.37
2019-02-25T18:00:39.490Z,33.93
2019-02-25T18:03:08.832Z,34.20
2019-02-25T18:05:38.731Z,35.47
2019-02-25T18:08:10.550Z,34.60
2019-02-25T18:10:39.167Z,31.60
2019-02-25T18:13:08.669Z,35.57
2019-02-25T18:15:37.742Z,33.97
2019-02-25T18:18:09.153Z,31.10
2019-02-25T18:20:36.638Z,37.17
2019-02-25T18:23:06.272Z,33.67
2019-02-25T18:25:34.743Z,31.33
2019-02-25T18:28:04.411Z,32.37
2019-02-25T18:30:33.521Z,32.77
2019-02-25T18:33:04.641Z,36.27
2019-02-25T18:35:33.910Z,34.90
2019-02-25T18:38:03.133Z,33.60
2019-02-25T18:40:33.457Z,37.33
2019-02-25T18:43:03.024Z,40.17
2019-02-25T18:45:33.257Z,36.80
2019-02-25T18:48:02.222Z,43.27
2019-02-25T18:50:30.933Z,39.30
2019-02-25T18:53:01.206Z,45.23
2019-02-25T18:55:31.550Z,43.60
2019-02-25T18:57:59.486Z,45.07
2019-02-25T19:00:40.681Z,41.17
2019-02-25T19:03:10.464Z,46.33
2019-02-25T19:05:39.136Z,39.57
2019-02-25T19:08:17.198Z,42.87
2019-02-25T19:10:46.167Z,42.13
2019-02-25T19:13:15.980Z,43.30
2019-02-25T19:15:45.706Z,42.73
2019-02-25T19:18:15.977Z,42.07
2019-02-25T19:20:47.584Z,39.37
2019-02-25T19:23:16.548Z,44.37
2019-02-25T19:25:45.158Z,44.50
2019-02-25T19:28:16.604Z,37.97
2019-02-25T19:30:43.641Z,41.80
2019-02-25T19:33:12.385Z,41.67
2019-02-25T19:35:41.012Z,45.20
2019-02-25T19:38:10.385Z,36.57
2019-02-25T19:40:40.847Z,37.03
2019-02-25T19:43:09.877Z,37.17
2019-02-25T19:45:39.086Z,38.23
2019-02-25T19:48:08.390Z,40.00
2019-02-25T19:50:38.550Z,34.47
2019-02-25T19:53:07.635Z,40.37
2019-02-25T19:55:38.678Z,45.57
2019-02-25T19:58:06.925Z,54.77
2019-02-25T20:00:35.956Z,42.47
2019-02-25T20:03:05.964Z,40.07
2019-02-25T20:05:38.734Z,46.70
2019-02-25T20:08:05.200Z,45.43
2019-02-25T20:10:34.702Z,43.57
2019-02-25T20:13:05.693Z,43.03
2019-02-25T20:15:37.639Z,42.07
2019-02-25T20:18:06.991Z,41.57
2019-02-25T20:20:36.996Z,41.13
2019-02-25T20:23:06.182Z,42.90
2019-02-25T20:25:35.716Z,44.10
2019-02-25T20:28:04.386Z,42.40
2019-02-25T20:30:32.799Z,40.37
2019-02-25T20:33:03.212Z,40.50
2019-02-25T20:35:31.438Z,43.10
2019-02-25T20:38:00.392Z,42.00
2019-02-25T20:40:30.615Z,49.37
2019-02-25T20:43:00.953Z,40.67
2019-02-25T20:45:35.465Z,38.23
2019-02-25T20:48:04.110Z,39.23
2019-02-25T20:50:32.882Z,44.90
2019-02-25T20:53:05.484Z,40.27
2019-02-25T20:55:33.872Z,40.78
2019-02-25T20:58:01.892Z,39.20
2019-02-25T21:00:30.349Z,34.47
2019-02-25T21:02:58.836Z,37.40
2019-02-25T21:05:27.453Z,34.40
2019-02-25T21:07:59.176Z,34.40
2019-02-25T21:10:27.895Z,35.83
2019-02-25T21:12:57.086Z,35.47
2019-02-25T21:15:26.066Z,36.50
2019-02-25T21:17:56.760Z,35.80
2019-02-25T21:20:26.217Z,36.10
2019-02-25T21:22:57.391Z,35.40
2019-02-25T21:25:26.951Z,32.63
2019-02-25T21:27:57.442Z,34.20
2019-02-25T21:30:25.333Z,34.43
2019-02-25T21:32:54.359Z,36.85
2019-02-25T21:35:27.644Z,41.58
2019-02-25T21:37:54.599Z,33.20
2019-02-25T21:40:26.459Z,37.58
2019-02-25T21:42:56.400Z,30.77
2019-02-25T21:45:25.293Z,33.28
2019-02-25T21:47:56.650Z,30.97
2019-02-25T21:50:26.306Z,34.33
2019-02-25T21:52:54.445Z,30.37
2019-02-25T21:55:23.824Z,29.75
2019-02-25T21:57:55.017Z,29.87
2019-02-25T22:00:26.802Z,32.98
2019-02-25T22:02:54.933Z,31.52
2019-02-25T22:05:23.716Z,30.80
2019-02-25T22:07:54.289Z,32.23
2019-02-25T22:10:22.594Z,33.35
2019-02-25T22:12:50.983Z,28.32
2019-02-25T22:15:22.094Z,29.85
2019-02-25T22:17:51.347Z,29.95
2019-02-25T22:20:22.535Z,32.60
2019-02-25T22:22:54.458Z,30.88
2019-02-25T22:25:24.213Z,36.73
2019-02-25T22:27:52.926Z,27.95
2019-02-25T22:30:21.331Z,33.92
2019-02-25T22:32:49.727Z,34.65
2019-02-25T22:35:18.273Z,31.00
2019-02-25T22:37:49.274Z,29.60
2019-02-25T22:40:17.529Z,30.32
2019-02-25T22:42:47.943Z,34.00
2019-02-25T22:45:21.138Z,30.80
2019-02-25T22:47:49.772Z,34.38
2019-02-25T22:50:18.180Z,33.80
2019-02-25T22:52:46.571Z,34.80
2019-02-25T22:55:17.382Z,33.67
2019-02-25T22:57:46.034Z,42.78
2019-02-25T23:00:19.780Z,33.48
2019-02-25T23:02:49.801Z,34.30
2019-02-25T23:05:18.938Z,32.90
2019-02-25T23:07:50.132Z,29.90
2019-02-25T23:10:20.213Z,31.75
2019-02-25T23:12:48.585Z,30.27
2019-02-25T23:15:18.292Z,32.00
2019-02-25T23:17:47.287Z,36.00
2019-02-25T23:20:15.748Z,31.25
2019-02-25T23:22:44.158Z,38.75
2019-02-25T23:25:12.825Z,48.28
2019-02-25T23:27:41.235Z,38.15
2019-02-25T23:30:12.619Z,30.90
2019-02-25T23:32:41.018Z,40.52
2019-02-25T23:35:11.860Z,35.92
2019-02-25T23:37:39.555Z,44.23
2019-02-25T23:40:11.994Z,35.73
2019-02-25T23:42:41.885Z,41.45
2019-02-25T23:45:13.001Z,41.00
2019-02-25T23:47:41.888Z,34.55
2019-02-25T23:50:14.281Z,48.85
2019-02-25T23:52:42.679Z,48.28
2019-02-25T23:55:14.622Z,40.80
2019-02-25T23:57:42.276Z,35.48
